sensor_id;sensor_type;location;lat;lon;timestamp;P1;durP1;ratioP1;P2;durP2;ratioP2
8978;SDS011;4524;51.364;5.448;2023-02-28T00:01:33;11.23;;;9.00;;
8978;SDS011;4524;51.364;5.448;2023-02-28T00:04:01;10.05;;;8.43;;
8978;SDS011;4524;51.364;5.448;2023-02-28T00:06:29;10.73;;;9.07;;
8978;SDS011;4524;51.364;5.448;2023-02-28T00:08:59;9.73;;;8.73;;
8978;SDS011;4524;51.364;5.448;2023-02-28T00:11:27;9.60;;;8.48;;
8978;SDS011;4524;51.364;5.448;2023-02-28T00:13:55;10.90;;;8.90;;
8978;SDS011;4524;51.364;5.448;2023-02-28T00:16:23;10.60;;;8.82;;
8978;SDS011;4524;51.364;5.448;2023-02-28T00:18:51;10.00;;;8.52;;
8978;SDS011;4524;51.364;5.448;2023-02-28T00:21:19;11.23;;;9.02;;
8978;SDS011;4524;51.364;5.448;2023-02-28T00:23:47;9.95;;;8.80;;
8978;SDS011;4524;51.364;5.448;2023-02-28T00:26:16;11.27;;;9.10;;
8978;SDS011;4524;51.364;5.448;2023-02-28T00:28:47;10.50;;;9.20;;
8978;SDS011;4524;51.364;5.448;2023-02-28T00:31:16;11.82;;;9.15;;
8978;SDS011;4524;51.364;5.448;2023-02-28T00:33:43;10.13;;;8.95;;
8978;SDS011;4524;51.364;5.448;2023-02-28T00:36:13;10.93;;;9.50;;
8978;SDS011;4524;51.364;5.448;2023-02-28T00:38:41;11.50;;;9.07;;
8978;SDS011;4524;51.364;5.448;2023-02-28T00:41:09;11.43;;;9.25;;
8978;SDS011;4524;51.364;5.448;2023-02-28T00:43:39;12.93;;;9.38;;
8978;SDS011;4524;51.364;5.448;2023-02-28T00:46:09;11.30;;;9.30;;
8978;SDS011;4524;51.364;5.448;2023-02-28T00:48:37;10.93;;;9.40;;
8978;SDS011;4524;51.364;5.448;2023-02-28T00:51:05;10.70;;;9.38;;
8978;SDS011;4524;51.364;5.448;2023-02-28T00:53:33;10.98;;;9.40;;
8978;SDS011;4524;51.364;5.448;2023-02-28T00:56:01;11.83;;;9.70;;
8978;SDS011;4524;51.364;5.448;2023-02-28T00:58:30;11.00;;;9.73;;
8978;SDS011;4524;51.364;5.448;2023-02-28T01:00:59;10.68;;;9.57;;
8978;SDS011;4524;51.364;5.448;2023-02-28T01:03:28;12.68;;;10.10;;
8978;SDS011;4524;51.364;5.448;2023-02-28T01:05:57;13.85;;;10.18;;
8978;SDS011;4524;51.364;5.448;2023-02-28T01:08:25;11.33;;;9.33;;
8978;SDS011;4524;51.364;5.448;2023-02-28T01:10:53;11.82;;;9.52;;
8978;SDS011;4524;51.364;5.448;2023-02-28T01:13:21;11.53;;;9.23;;
8978;SDS011;4524;51.364;5.448;2023-02-28T01:15:50;11.10;;;9.93;;
8978;SDS011;4524;51.364;5.448;2023-02-28T01:18:21;12.25;;;9.80;;
8978;SDS011;4524;51.364;5.448;2023-02-28T01:20:50;11.32;;;10.20;;
8978;SDS011;4524;51.364;5.448;2023-02-28T01:23:19;10.32;;;9.32;;
8978;SDS011;4524;51.364;5.448;2023-02-28T01:25:47;11.55;;;10.35;;
8978;SDS011;4524;51.364;5.448;2023-02-28T01:28:15;10.95;;;9.75;;
8978;SDS011;4524;51.364;5.448;2023-02-28T01:30:47;11.50;;;10.30;;
8978;SDS011;4524;51.364;5.448;2023-02-28T01:33:15;11.02;;;9.40;;
8978;SDS011;4524;51.364;5.448;2023-02-28T01:35:45;11.68;;;10.10;;
8978;SDS011;4524;51.364;5.448;2023-02-28T01:38:13;12.13;;;10.57;;
8978;SDS011;4524;51.364;5.448;2023-02-28T01:40:48;11.90;;;9.68;;
8978;SDS011;4524;51.364;5.448;2023-02-28T01:43:19;10.93;;;9.82;;
8978;SDS011;4524;51.364;5.448;2023-02-28T01:45:49;11.05;;;9.95;;
8978;SDS011;4524;51.364;5.448;2023-02-28T01:48:18;11.70;;;9.43;;
8978;SDS011;4524;51.364;5.448;2023-02-28T01:50:49;11.37;;;9.90;;
8978;SDS011;4524;51.364;5.448;2023-02-28T01:53:19;12.82;;;10.35;;
8978;SDS011;4524;51.364;5.448;2023-02-28T01:55:53;12.43;;;10.18;;
8978;SDS011;4524;51.364;5.448;2023-02-28T01:58:22;10.93;;;9.82;;
8978;SDS011;4524;51.364;5.448;2023-02-28T02:00:51;11.07;;;9.73;;
8978;SDS011;4524;51.364;5.448;2023-02-28T02:03:19;12.10;;;10.73;;
8978;SDS011;4524;51.364;5.448;2023-02-28T02:05:48;12.05;;;10.38;;
8978;SDS011;4524;51.364;5.448;2023-02-28T02:08:18;10.45;;;9.45;;
8978;SDS011;4524;51.364;5.448;2023-02-28T02:10:50;13.02;;;9.88;;
8978;SDS011;4524;51.364;5.448;2023-02-28T02:13:30;12.20;;;10.52;;
8978;SDS011;4524;51.364;5.448;2023-02-28T02:16:13;11.45;;;9.90;;
8978;SDS011;4524;51.364;5.448;2023-02-28T02:18:52;12.10;;;10.63;;
8978;SDS011;4524;51.364;5.448;2023-02-28T02:21:32;11.82;;;9.85;;
8978;SDS011;4524;51.364;5.448;2023-02-28T02:24:40;11.37;;;10.10;;
8978;SDS011;4524;51.364;5.448;2023-02-28T02:30:55;11.13;;;9.97;;
8978;SDS011;4524;51.364;5.448;2023-02-28T02:33:46;10.90;;;9.80;;
8978;SDS011;4524;51.364;5.448;2023-02-28T02:36:42;11.73;;;10.07;;
8978;SDS011;4524;51.364;5.448;2023-02-28T02:39:18;11.33;;;9.90;;
8978;SDS011;4524;51.364;5.448;2023-02-28T02:41:51;11.75;;;10.13;;
8978;SDS011;4524;51.364;5.448;2023-02-28T02:44:21;11.73;;;10.23;;
8978;SDS011;4524;51.364;5.448;2023-02-28T02:46:53;13.40;;;10.25;;
8978;SDS011;4524;51.364;5.448;2023-02-28T02:49:28;12.30;;;9.85;;
8978;SDS011;4524;51.364;5.448;2023-02-28T02:52:03;11.47;;;10.23;;
8978;SDS011;4524;51.364;5.448;2023-02-28T02:54:34;10.57;;;9.57;;
8978;SDS011;4524;51.364;5.448;2023-02-28T02:57:04;11.02;;;9.82;;
8978;SDS011;4524;51.364;5.448;2023-02-28T02:59:35;9.95;;;8.93;;
8978;SDS011;4524;51.364;5.448;2023-02-28T03:02:07;9.60;;;8.68;;
8978;SDS011;4524;51.364;5.448;2023-02-28T03:04:40;11.02;;;9.18;;
8978;SDS011;4524;51.364;5.448;2023-02-28T03:07:12;10.73;;;9.02;;
8978;SDS011;4524;51.364;5.448;2023-02-28T03:09:40;12.80;;;9.63;;
8978;SDS011;4524;51.364;5.448;2023-02-28T03:12:09;12.02;;;9.00;;
8978;SDS011;4524;51.364;5.448;2023-02-28T03:14:45;10.73;;;9.48;;
8978;SDS011;4524;51.364;5.448;2023-02-28T03:17:31;11.90;;;9.00;;
8978;SDS011;4524;51.364;5.448;2023-02-28T03:20:17;10.57;;;9.10;;
8978;SDS011;4524;51.364;5.448;2023-02-28T03:23:00;11.57;;;9.30;;
8978;SDS011;4524;51.364;5.448;2023-02-28T03:25:37;10.68;;;8.85;;
8978;SDS011;4524;51.364;5.448;2023-02-28T03:28:12;11.15;;;9.20;;
8978;SDS011;4524;51.364;5.448;2023-02-28T03:30:45;10.87;;;9.67;;
8978;SDS011;4524;51.364;5.448;2023-02-28T03:33:20;10.73;;;9.55;;
8978;SDS011;4524;51.364;5.448;2023-02-28T03:35:52;11.30;;;9.82;;
8978;SDS011;4524;51.364;5.448;2023-02-28T03:38:25;13.30;;;10.00;;
8978;SDS011;4524;51.364;5.448;2023-02-28T03:41:00;12.02;;;9.65;;
8978;SDS011;4524;51.364;5.448;2023-02-28T03:43:33;11.35;;;9.45;;
8978;SDS011;4524;51.364;5.448;2023-02-28T03:46:05;11.35;;;10.15;;
8978;SDS011;4524;51.364;5.448;2023-02-28T03:48:39;10.85;;;9.73;;
8978;SDS011;4524;51.364;5.448;2023-02-28T03:51:10;10.35;;;8.90;;
8978;SDS011;4524;51.364;5.448;2023-02-28T03:53:44;10.60;;;9.50;;
8978;SDS011;4524;51.364;5.448;2023-02-28T03:56:15;10.65;;;9.30;;
8978;SDS011;4524;51.364;5.448;2023-02-28T03:58:47;11.07;;;9.07;;
8978;SDS011;4524;51.364;5.448;2023-02-28T04:01:21;10.37;;;9.17;;
8978;SDS011;4524;51.364;5.448;2023-02-28T04:03:53;10.40;;;8.85;;
8978;SDS011;4524;51.364;5.448;2023-02-28T04:06:22;11.13;;;9.32;;
8978;SDS011;4524;51.364;5.448;2023-02-28T04:08:52;11.10;;;9.35;;
8978;SDS011;4524;51.364;5.448;2023-02-28T04:11:21;11.07;;;8.73;;
8978;SDS011;4524;51.364;5.448;2023-02-28T04:13:51;10.48;;;8.85;;
8978;SDS011;4524;51.364;5.448;2023-02-28T04:16:18;9.32;;;8.35;;
8978;SDS011;4524;51.364;5.448;2023-02-28T04:19:00;9.85;;;8.32;;
8978;SDS011;4524;51.364;5.448;2023-02-28T04:21:30;10.65;;;8.68;;
8978;SDS011;4524;51.364;5.448;2023-02-28T04:24:00;9.05;;;8.15;;
8978;SDS011;4524;51.364;5.448;2023-02-28T04:26:29;9.52;;;7.55;;
8978;SDS011;4524;51.364;5.448;2023-02-28T04:28:58;9.50;;;8.15;;
8978;SDS011;4524;51.364;5.448;2023-02-28T04:31:26;8.60;;;7.70;;
8978;SDS011;4524;51.364;5.448;2023-02-28T04:33:55;10.35;;;8.45;;
8978;SDS011;4524;51.364;5.448;2023-02-28T04:36:23;9.75;;;8.02;;
8978;SDS011;4524;51.364;5.448;2023-02-28T04:38:51;9.32;;;7.90;;
8978;SDS011;4524;51.364;5.448;2023-02-28T04:41:21;9.20;;;8.20;;
8978;SDS011;4524;51.364;5.448;2023-02-28T04:43:50;8.85;;;7.95;;
8978;SDS011;4524;51.364;5.448;2023-02-28T04:46:18;8.60;;;7.57;;
8978;SDS011;4524;51.364;5.448;2023-02-28T04:48:47;9.90;;;8.43;;
8978;SDS011;4524;51.364;5.448;2023-02-28T04:51:15;9.18;;;7.05;;
8978;SDS011;4524;51.364;5.448;2023-02-28T04:53:45;9.52;;;7.68;;
8978;SDS011;4524;51.364;5.448;2023-02-28T04:56:15;9.10;;;7.88;;
8978;SDS011;4524;51.364;5.448;2023-02-28T04:58:45;8.50;;;7.38;;
8978;SDS011;4524;51.364;5.448;2023-02-28T05:01:18;8.20;;;7.40;;
8978;SDS011;4524;51.364;5.448;2023-02-28T05:03:48;9.00;;;8.10;;
8978;SDS011;4524;51.364;5.448;2023-02-28T05:06:16;9.00;;;7.25;;
8978;SDS011;4524;51.364;5.448;2023-02-28T05:08:45;9.73;;;7.68;;
8978;SDS011;4524;51.364;5.448;2023-02-28T05:11:15;9.52;;;7.80;;
8978;SDS011;4524;51.364;5.448;2023-02-28T05:13:46;7.85;;;7.05;;
8978;SDS011;4524;51.364;5.448;2023-02-28T05:16:14;8.45;;;7.30;;
8978;SDS011;4524;51.364;5.448;2023-02-28T05:18:43;9.38;;;7.30;;
8978;SDS011;4524;51.364;5.448;2023-02-28T05:21:22;9.73;;;7.68;;
8978;SDS011;4524;51.364;5.448;2023-02-28T05:23:54;11.43;;;8.20;;
8978;SDS011;4524;51.364;5.448;2023-02-28T05:26:23;9.63;;;7.25;;
8978;SDS011;4524;51.364;5.448;2023-02-28T05:28:53;9.80;;;7.30;;
8978;SDS011;4524;51.364;5.448;2023-02-28T05:31:21;9.68;;;7.88;;
8978;SDS011;4524;51.364;5.448;2023-02-28T05:33:50;9.80;;;7.45;;
8978;SDS011;4524;51.364;5.448;2023-02-28T05:36:18;10.90;;;7.63;;
8978;SDS011;4524;51.364;5.448;2023-02-28T05:38:46;10.35;;;7.68;;
8978;SDS011;4524;51.364;5.448;2023-02-28T05:41:15;8.38;;;7.53;;
8978;SDS011;4524;51.364;5.448;2023-02-28T05:43:45;9.05;;;7.35;;
8978;SDS011;4524;51.364;5.448;2023-02-28T05:46:14;8.63;;;7.30;;
8978;SDS011;4524;51.364;5.448;2023-02-28T05:48:45;9.57;;;7.40;;
8978;SDS011;4524;51.364;5.448;2023-02-28T05:51:15;10.30;;;7.60;;
8978;SDS011;4524;51.364;5.448;2023-02-28T05:53:43;9.02;;;7.43;;
8978;SDS011;4524;51.364;5.448;2023-02-28T05:56:11;8.75;;;7.32;;
8978;SDS011;4524;51.364;5.448;2023-02-28T05:58:39;8.77;;;7.50;;
8978;SDS011;4524;51.364;5.448;2023-02-28T06:01:22;8.82;;;7.80;;
8978;SDS011;4524;51.364;5.448;2023-02-28T06:03:54;8.90;;;7.10;;
8978;SDS011;4524;51.364;5.448;2023-02-28T06:06:22;10.43;;;7.47;;
8978;SDS011;4524;51.364;5.448;2023-02-28T06:08:50;9.57;;;7.20;;
8978;SDS011;4524;51.364;5.448;2023-02-28T06:11:18;9.43;;;7.00;;
8978;SDS011;4524;51.364;5.448;2023-02-28T06:13:46;8.43;;;7.30;;
8978;SDS011;4524;51.364;5.448;2023-02-28T06:16:14;8.52;;;7.07;;
8978;SDS011;4524;51.364;5.448;2023-02-28T06:18:44;8.90;;;7.18;;
8978;SDS011;4524;51.364;5.448;2023-02-28T06:21:12;9.30;;;7.28;;
8978;SDS011;4524;51.364;5.448;2023-02-28T06:23:40;8.02;;;7.25;;
8978;SDS011;4524;51.364;5.448;2023-02-28T06:26:08;8.35;;;7.53;;
8978;SDS011;4524;51.364;5.448;2023-02-28T06:28:36;8.80;;;7.82;;
8978;SDS011;4524;51.364;5.448;2023-02-28T06:31:07;8.88;;;7.40;;
8978;SDS011;4524;51.364;5.448;2023-02-28T06:33:37;11.80;;;7.25;;
8978;SDS011;4524;51.364;5.448;2023-02-28T06:36:08;9.05;;;7.38;;
8978;SDS011;4524;51.364;5.448;2023-02-28T06:38:37;8.57;;;7.32;;
8978;SDS011;4524;51.364;5.448;2023-02-28T06:41:05;9.45;;;7.13;;
8978;SDS011;4524;51.364;5.448;2023-02-28T06:43:34;9.18;;;7.32;;
8978;SDS011;4524;51.364;5.448;2023-02-28T06:46:05;7.93;;;7.10;;
8978;SDS011;4524;51.364;5.448;2023-02-28T06:48:34;8.32;;;6.53;;
8978;SDS011;4524;51.364;5.448;2023-02-28T06:51:03;8.45;;;6.80;;
8978;SDS011;4524;51.364;5.448;2023-02-28T06:53:33;7.75;;;6.95;;
8978;SDS011;4524;51.364;5.448;2023-02-28T06:56:03;8.18;;;6.50;;
8978;SDS011;4524;51.364;5.448;2023-02-28T06:58:32;7.68;;;6.88;;
8978;SDS011;4524;51.364;5.448;2023-02-28T07:01:00;8.53;;;6.70;;
8978;SDS011;4524;51.364;5.448;2023-02-28T07:03:28;7.63;;;6.57;;
8978;SDS011;4524;51.364;5.448;2023-02-28T07:05:59;9.07;;;7.07;;
8978;SDS011;4524;51.364;5.448;2023-02-28T07:08:28;12.85;;;9.80;;
8978;SDS011;4524;51.364;5.448;2023-02-28T07:10:57;8.40;;;7.38;;
8978;SDS011;4524;51.364;5.448;2023-02-28T07:13:25;15.02;;;11.85;;
8978;SDS011;4524;51.364;5.448;2023-02-28T07:15:54;17.60;;;13.52;;
8978;SDS011;4524;51.364;5.448;2023-02-28T07:18:22;14.13;;;10.40;;
8978;SDS011;4524;51.364;5.448;2023-02-28T07:20:51;16.45;;;13.20;;
8978;SDS011;4524;51.364;5.448;2023-02-28T07:23:19;14.10;;;10.60;;
8978;SDS011;4524;51.364;5.448;2023-02-28T07:25:48;10.63;;;9.13;;
8978;SDS011;4524;51.364;5.448;2023-02-28T07:28:19;7.50;;;6.38;;
8978;SDS011;4524;51.364;5.448;2023-02-28T07:30:47;7.05;;;6.18;;
8978;SDS011;4524;51.364;5.448;2023-02-28T07:33:15;8.23;;;6.68;;
8978;SDS011;4524;51.364;5.448;2023-02-28T07:35:43;8.00;;;6.53;;
8978;SDS011;4524;51.364;5.448;2023-02-28T07:38:11;7.47;;;6.13;;
8978;SDS011;4524;51.364;5.448;2023-02-28T07:40:40;6.72;;;5.53;;
8978;SDS011;4524;51.364;5.448;2023-02-28T07:43:08;6.47;;;5.60;;
8978;SDS011;4524;51.364;5.448;2023-02-28T07:45:37;7.30;;;5.38;;
8978;SDS011;4524;51.364;5.448;2023-02-28T07:48:06;6.68;;;5.10;;
8978;SDS011;4524;51.364;5.448;2023-02-28T07:50:36;5.53;;;4.90;;
8978;SDS011;4524;51.364;5.448;2023-02-28T07:53:04;5.18;;;4.68;;
8978;SDS011;4524;51.364;5.448;2023-02-28T07:55:32;5.00;;;4.50;;
8978;SDS011;4524;51.364;5.448;2023-02-28T07:58:00;6.25;;;4.78;;
8978;SDS011;4524;51.364;5.448;2023-02-28T08:00:28;4.78;;;4.30;;
8978;SDS011;4524;51.364;5.448;2023-02-28T08:02:59;5.47;;;4.55;;
8978;SDS011;4524;51.364;5.448;2023-02-28T08:05:27;4.90;;;4.20;;
8978;SDS011;4524;51.364;5.448;2023-02-28T08:07:56;5.55;;;4.30;;
8978;SDS011;4524;51.364;5.448;2023-02-28T08:10:24;4.20;;;3.80;;
8978;SDS011;4524;51.364;5.448;2023-02-28T08:12:52;4.43;;;3.75;;
8978;SDS011;4524;51.364;5.448;2023-02-28T08:15:20;4.20;;;3.60;;
8978;SDS011;4524;51.364;5.448;2023-02-28T08:17:48;4.03;;;3.50;;
8978;SDS011;4524;51.364;5.448;2023-02-28T08:20:17;5.03;;;3.80;;
8978;SDS011;4524;51.364;5.448;2023-02-28T08:22:45;4.68;;;3.78;;
8978;SDS011;4524;51.364;5.448;2023-02-28T08:25:13;4.63;;;3.70;;
8978;SDS011;4524;51.364;5.448;2023-02-28T08:27:42;3.50;;;3.15;;
8978;SDS011;4524;51.364;5.448;2023-02-28T08:30:11;4.32;;;3.30;;
8978;SDS011;4524;51.364;5.448;2023-02-28T08:32:40;3.97;;;3.58;;
8978;SDS011;4524;51.364;5.448;2023-02-28T08:35:09;4.93;;;3.63;;
8978;SDS011;4524;51.364;5.448;2023-02-28T08:37:39;4.63;;;3.88;;
8978;SDS011;4524;51.364;5.448;2023-02-28T08:40:07;3.90;;;3.47;;
8978;SDS011;4524;51.364;5.448;2023-02-28T08:42:36;3.72;;;3.20;;
8978;SDS011;4524;51.364;5.448;2023-02-28T08:45:04;3.67;;;3.38;;
8978;SDS011;4524;51.364;5.448;2023-02-28T08:47:33;3.60;;;3.25;;
8978;SDS011;4524;51.364;5.448;2023-02-28T08:50:01;3.85;;;3.13;;
8978;SDS011;4524;51.364;5.448;2023-02-28T08:52:29;3.80;;;3.40;;
8978;SDS011;4524;51.364;5.448;2023-02-28T08:54:58;4.93;;;3.05;;
8978;SDS011;4524;51.364;5.448;2023-02-28T08:57:26;4.00;;;3.13;;
8978;SDS011;4524;51.364;5.448;2023-02-28T08:59:54;3.63;;;2.95;;
8978;SDS011;4524;51.364;5.448;2023-02-28T09:02:22;3.10;;;2.80;;
8978;SDS011;4524;51.364;5.448;2023-02-28T09:04:50;3.67;;;3.03;;
8978;SDS011;4524;51.364;5.448;2023-02-28T09:07:17;3.97;;;2.83;;
8978;SDS011;4524;51.364;5.448;2023-02-28T09:09:46;3.17;;;2.40;;
8978;SDS011;4524;51.364;5.448;2023-02-28T09:12:23;2.70;;;2.42;;
8978;SDS011;4524;51.364;5.448;2023-02-28T09:14:52;3.00;;;2.70;;
8978;SDS011;4524;51.364;5.448;2023-02-28T09:17:20;2.65;;;2.40;;
8978;SDS011;4524;51.364;5.448;2023-02-28T09:19:49;2.72;;;2.42;;
8978;SDS011;4524;51.364;5.448;2023-02-28T09:22:17;3.35;;;2.40;;
8978;SDS011;4524;51.364;5.448;2023-02-28T09:24:45;2.75;;;2.30;;
8978;SDS011;4524;51.364;5.448;2023-02-28T09:27:13;3.50;;;2.42;;
8978;SDS011;4524;51.364;5.448;2023-02-28T09:29:42;2.70;;;2.25;;
8978;SDS011;4524;51.364;5.448;2023-02-28T09:32:10;2.72;;;2.33;;
8978;SDS011;4524;51.364;5.448;2023-02-28T09:34:38;2.58;;;2.20;;
8978;SDS011;4524;51.364;5.448;2023-02-28T09:37:06;2.47;;;2.20;;
8978;SDS011;4524;51.364;5.448;2023-02-28T09:39:34;2.47;;;2.28;;
8978;SDS011;4524;51.364;5.448;2023-02-28T09:42:02;2.47;;;2.25;;
8978;SDS011;4524;51.364;5.448;2023-02-28T09:44:35;2.70;;;2.05;;
8978;SDS011;4524;51.364;5.448;2023-02-28T09:47:10;2.20;;;2.00;;
8978;SDS011;4524;51.364;5.448;2023-02-28T09:49:45;2.28;;;2.03;;
8978;SDS011;4524;51.364;5.448;2023-02-28T09:52:15;2.80;;;2.00;;
8978;SDS011;4524;51.364;5.448;2023-02-28T09:54:45;2.40;;;2.08;;
8978;SDS011;4524;51.364;5.448;2023-02-28T09:57:15;2.20;;;2.00;;
8978;SDS011;4524;51.364;5.448;2023-02-28T09:59:50;2.20;;;2.00;;
8978;SDS011;4524;51.364;5.448;2023-02-28T10:02:45;2.30;;;2.10;;
8978;SDS011;4524;51.364;5.448;2023-02-28T10:05:20;3.00;;;2.10;;
8978;SDS011;4524;51.364;5.448;2023-02-28T10:07:55;2.38;;;2.15;;
8978;SDS011;4524;51.364;5.448;2023-02-28T10:10:36;2.25;;;2.05;;
8978;SDS011;4524;51.364;5.448;2023-02-28T10:13:13;2.58;;;1.92;;
8978;SDS011;4524;51.364;5.448;2023-02-28T10:15:51;2.45;;;2.08;;
8978;SDS011;4524;51.364;5.448;2023-02-28T10:18:24;2.47;;;2.00;;
8978;SDS011;4524;51.364;5.448;2023-02-28T10:20:56;3.13;;;2.28;;
8978;SDS011;4524;51.364;5.448;2023-02-28T10:23:27;3.30;;;2.45;;
8978;SDS011;4524;51.364;5.448;2023-02-28T10:25:59;2.63;;;2.17;;
8978;SDS011;4524;51.364;5.448;2023-02-28T10:28:29;2.60;;;2.40;;
8978;SDS011;4524;51.364;5.448;2023-02-28T10:30:58;2.35;;;2.10;;
8978;SDS011;4524;51.364;5.448;2023-02-28T10:33:29;2.55;;;2.35;;
8978;SDS011;4524;51.364;5.448;2023-02-28T10:36:00;2.47;;;2.28;;
8978;SDS011;4524;51.364;5.448;2023-02-28T10:38:32;2.58;;;2.22;;
8978;SDS011;4524;51.364;5.448;2023-02-28T10:41:04;2.70;;;2.30;;
8978;SDS011;4524;51.364;5.448;2023-02-28T10:43:34;2.47;;;2.15;;
8978;SDS011;4524;51.364;5.448;2023-02-28T10:46:03;2.40;;;2.20;;
8978;SDS011;4524;51.364;5.448;2023-02-28T10:48:40;3.35;;;2.30;;
8978;SDS011;4524;51.364;5.448;2023-02-28T10:51:11;2.42;;;2.15;;
8978;SDS011;4524;51.364;5.448;2023-02-28T10:53:47;2.40;;;2.20;;
8978;SDS011;4524;51.364;5.448;2023-02-28T10:56:27;2.70;;;2.50;;
8978;SDS011;4524;51.364;5.448;2023-02-28T10:58:57;2.78;;;2.40;;
8978;SDS011;4524;51.364;5.448;2023-02-28T11:01:38;2.80;;;2.30;;
8978;SDS011;4524;51.364;5.448;2023-02-28T11:04:19;2.33;;;2.13;;
8978;SDS011;4524;51.364;5.448;2023-02-28T11:07:00;2.15;;;1.90;;
8978;SDS011;4524;51.364;5.448;2023-02-28T11:09:31;2.20;;;2.00;;
8978;SDS011;4524;51.364;5.448;2023-02-28T11:12:01;2.50;;;2.30;;
8978;SDS011;4524;51.364;5.448;2023-02-28T11:14:32;3.10;;;2.40;;
8978;SDS011;4524;51.364;5.448;2023-02-28T11:17:11;3.08;;;2.28;;
8978;SDS011;4524;51.364;5.448;2023-02-28T11:19:45;3.67;;;2.30;;
8978;SDS011;4524;51.364;5.448;2023-02-28T11:22:17;3.10;;;2.25;;
8978;SDS011;4524;51.364;5.448;2023-02-28T11:24:49;3.20;;;2.25;;
8978;SDS011;4524;51.364;5.448;2023-02-28T11:27:45;2.83;;;2.35;;
8978;SDS011;4524;51.364;5.448;2023-02-28T11:30:26;2.75;;;2.45;;
8978;SDS011;4524;51.364;5.448;2023-02-28T11:32:55;2.60;;;2.20;;
8978;SDS011;4524;51.364;5.448;2023-02-28T11:35:26;2.67;;;2.30;;
8978;SDS011;4524;51.364;5.448;2023-02-28T11:37:56;2.80;;;2.40;;
8978;SDS011;4524;51.364;5.448;2023-02-28T11:40:28;4.10;;;2.67;;
8978;SDS011;4524;51.364;5.448;2023-02-28T11:43:10;2.95;;;2.30;;
8978;SDS011;4524;51.364;5.448;2023-02-28T11:45:54;3.40;;;2.30;;
8978;SDS011;4524;51.364;5.448;2023-02-28T11:48:33;2.38;;;2.17;;
8978;SDS011;4524;51.364;5.448;2023-02-28T11:51:13;3.00;;;2.30;;
8978;SDS011;4524;51.364;5.448;2023-02-28T11:53:51;2.70;;;2.50;;
8978;SDS011;4524;51.364;5.448;2023-02-28T11:56:36;2.85;;;2.47;;
8978;SDS011;4524;51.364;5.448;2023-02-28T11:59:25;4.47;;;2.67;;
8978;SDS011;4524;51.364;5.448;2023-02-28T12:02:25;3.17;;;2.40;;
8978;SDS011;4524;51.364;5.448;2023-02-28T12:07:54;3.25;;;2.60;;
8978;SDS011;4524;51.364;5.448;2023-02-28T12:10:32;3.42;;;2.40;;
8978;SDS011;4524;51.364;5.448;2023-02-28T12:13:08;3.72;;;2.40;;
8978;SDS011;4524;51.364;5.448;2023-02-28T12:15:54;4.00;;;2.60;;
8978;SDS011;4524;51.364;5.448;2023-02-28T12:18:58;3.17;;;2.40;;
8978;SDS011;4524;51.364;5.448;2023-02-28T12:21:36;3.83;;;2.65;;
8978;SDS011;4524;51.364;5.448;2023-02-28T12:24:19;3.92;;;2.78;;
8978;SDS011;4524;51.364;5.448;2023-02-28T12:26:59;3.03;;;2.50;;
8978;SDS011;4524;51.364;5.448;2023-02-28T12:29:30;3.47;;;2.70;;
8978;SDS011;4524;51.364;5.448;2023-02-28T12:32:03;3.80;;;2.65;;
8978;SDS011;4524;51.364;5.448;2023-02-28T12:34:37;2.95;;;2.65;;
8978;SDS011;4524;51.364;5.448;2023-02-28T12:37:10;3.58;;;2.88;;
8978;SDS011;4524;51.364;5.448;2023-02-28T12:39:45;3.13;;;2.53;;
8978;SDS011;4524;51.364;5.448;2023-02-28T12:42:17;5.03;;;2.95;;
8978;SDS011;4524;51.364;5.448;2023-02-28T12:44:51;3.92;;;2.70;;
8978;SDS011;4524;51.364;5.448;2023-02-28T12:47:23;3.65;;;2.90;;
8978;SDS011;4524;51.364;5.448;2023-02-28T12:49:52;4.30;;;3.17;;
8978;SDS011;4524;51.364;5.448;2023-02-28T12:52:25;4.85;;;2.97;;
8978;SDS011;4524;51.364;5.448;2023-02-28T12:55:02;4.55;;;3.30;;
8978;SDS011;4524;51.364;5.448;2023-02-28T12:57:34;3.95;;;3.15;;
8978;SDS011;4524;51.364;5.448;2023-02-28T13:00:10;3.90;;;2.90;;
8978;SDS011;4524;51.364;5.448;2023-02-28T13:02:58;4.05;;;2.78;;
8978;SDS011;4524;51.364;5.448;2023-02-28T13:05:50;3.78;;;2.80;;
8978;SDS011;4524;51.364;5.448;2023-02-28T13:11:41;2.80;;;2.60;;
8978;SDS011;4524;51.364;5.448;2023-02-28T13:14:16;4.07;;;2.55;;
8978;SDS011;4524;51.364;5.448;2023-02-28T13:16:59;3.50;;;2.70;;
8978;SDS011;4524;51.364;5.448;2023-02-28T13:19:30;3.47;;;2.60;;
8978;SDS011;4524;51.364;5.448;2023-02-28T13:22:01;3.08;;;2.67;;
8978;SDS011;4524;51.364;5.448;2023-02-28T13:24:38;3.05;;;2.60;;
8978;SDS011;4524;51.364;5.448;2023-02-28T13:33:25;2.78;;;2.53;;
8978;SDS011;4524;51.364;5.448;2023-02-28T13:36:06;3.33;;;2.70;;
8978;SDS011;4524;51.364;5.448;2023-02-28T13:38:49;3.15;;;2.60;;
8978;SDS011;4524;51.364;5.448;2023-02-28T13:44:16;4.00;;;2.83;;
8978;SDS011;4524;51.364;5.448;2023-02-28T13:49:51;3.50;;;3.00;;
8978;SDS011;4524;51.364;5.448;2023-02-28T13:52:20;3.17;;;2.70;;
8978;SDS011;4524;51.364;5.448;2023-02-28T13:54:53;3.60;;;2.87;;
8978;SDS011;4524;51.364;5.448;2023-02-28T13:57:35;3.42;;;2.65;;
8978;SDS011;4524;51.364;5.448;2023-02-28T14:00:19;3.42;;;2.80;;
8978;SDS011;4524;51.364;5.448;2023-02-28T14:03:10;4.60;;;2.88;;
8978;SDS011;4524;51.364;5.448;2023-02-28T14:08:51;3.30;;;3.00;;
8978;SDS011;4524;51.364;5.448;2023-02-28T14:11:29;3.37;;;3.00;;
8978;SDS011;4524;51.364;5.448;2023-02-28T14:14:00;3.63;;;3.13;;
8978;SDS011;4524;51.364;5.448;2023-02-28T14:16:36;4.35;;;3.40;;
8978;SDS011;4524;51.364;5.448;2023-02-28T14:19:10;4.05;;;3.38;;
8978;SDS011;4524;51.364;5.448;2023-02-28T14:21:43;5.38;;;3.50;;
8978;SDS011;4524;51.364;5.448;2023-02-28T14:27:21;3.72;;;3.20;;
8978;SDS011;4524;51.364;5.448;2023-02-28T14:30:03;3.40;;;3.10;;
8978;SDS011;4524;51.364;5.448;2023-02-28T14:32:43;3.38;;;3.08;;
8978;SDS011;4524;51.364;5.448;2023-02-28T14:35:22;3.28;;;2.97;;
8978;SDS011;4524;51.364;5.448;2023-02-28T14:38:08;4.72;;;3.30;;
8978;SDS011;4524;51.364;5.448;2023-02-28T14:40:44;4.25;;;3.10;;
8978;SDS011;4524;51.364;5.448;2023-02-28T14:43:19;3.60;;;3.30;;
8978;SDS011;4524;51.364;5.448;2023-02-28T14:45:49;3.72;;;3.20;;
8978;SDS011;4524;51.364;5.448;2023-02-28T14:48:20;3.50;;;3.20;;
8978;SDS011;4524;51.364;5.448;2023-02-28T14:50:52;4.22;;;3.50;;
8978;SDS011;4524;51.364;5.448;2023-02-28T14:53:22;4.35;;;3.30;;
8978;SDS011;4524;51.364;5.448;2023-02-28T14:55:53;3.63;;;3.28;;
8978;SDS011;4524;51.364;5.448;2023-02-28T14:58:22;3.90;;;3.23;;
8978;SDS011;4524;51.364;5.448;2023-02-28T15:00:53;3.88;;;3.20;;
8978;SDS011;4524;51.364;5.448;2023-02-28T15:03:27;4.22;;;3.30;;
8978;SDS011;4524;51.364;5.448;2023-02-28T15:05:58;3.30;;;3.00;;
8978;SDS011;4524;51.364;5.448;2023-02-28T15:08:29;3.70;;;3.38;;
8978;SDS011;4524;51.364;5.448;2023-02-28T15:11:02;3.53;;;3.22;;
8978;SDS011;4524;51.364;5.448;2023-02-28T15:13:35;5.25;;;3.17;;
8978;SDS011;4524;51.364;5.448;2023-02-28T15:16:08;4.30;;;3.10;;
8978;SDS011;4524;51.364;5.448;2023-02-28T15:18:43;3.25;;;2.95;;
8978;SDS011;4524;51.364;5.448;2023-02-28T15:21:16;4.10;;;3.47;;
8978;SDS011;4524;51.364;5.448;2023-02-28T15:23:46;4.18;;;3.20;;
8978;SDS011;4524;51.364;5.448;2023-02-28T15:26:18;3.30;;;3.00;;
8978;SDS011;4524;51.364;5.448;2023-02-28T15:28:49;4.00;;;3.23;;
8978;SDS011;4524;51.364;5.448;2023-02-28T15:31:21;3.78;;;3.38;;
8978;SDS011;4524;51.364;5.448;2023-02-28T15:33:56;3.97;;;3.28;;
8978;SDS011;4524;51.364;5.448;2023-02-28T15:36:26;3.40;;;3.10;;
8978;SDS011;4524;51.364;5.448;2023-02-28T15:38:57;4.10;;;3.70;;
8978;SDS011;4524;51.364;5.448;2023-02-28T15:41:41;4.93;;;3.90;;
8978;SDS011;4524;51.364;5.448;2023-02-28T15:44:16;3.60;;;3.30;;
8978;SDS011;4524;51.364;5.448;2023-02-28T15:46:54;3.88;;;3.53;;
8978;SDS011;4524;51.364;5.448;2023-02-28T15:49:27;4.00;;;3.60;;
8978;SDS011;4524;51.364;5.448;2023-02-28T15:52:00;4.13;;;3.72;;
8978;SDS011;4524;51.364;5.448;2023-02-28T15:54:29;3.90;;;3.50;;
8978;SDS011;4524;51.364;5.448;2023-02-28T15:57:01;4.00;;;3.17;;
8978;SDS011;4524;51.364;5.448;2023-02-28T15:59:32;3.47;;;3.00;;
8978;SDS011;4524;51.364;5.448;2023-02-28T16:02:11;3.67;;;3.20;;
8978;SDS011;4524;51.364;5.448;2023-02-28T16:05:12;3.53;;;3.08;;
8978;SDS011;4524;51.364;5.448;2023-02-28T16:07:54;3.40;;;3.08;;
8978;SDS011;4524;51.364;5.448;2023-02-28T16:10:23;3.40;;;3.10;;